Isle of Canna, United Kingdom
Current Conditions -  °F | °C
As of 1:20 AM on Tuesday 25 Nov 2014 (Local Time) from EGPU Reporting Station
Clear Clear  
Wind Chill: 40°   Ceiling: Unl
Heat Index: 43°   Visibility: 6mi
Dew Point: 37°   Wind: 5mph
Humidity: 81%   Direction: 310°NW
Pressure: 30.21"   Gusts: NA
Location:  57.06°N, 6.5°W
Report Text: EGPU 250120Z AUTO 31004KT 9999 NCD 06/03 Q1023
Loading
Personal Weather Stations






























Interactive Weather Map New forecast layout! Learn more

10-Day Weather Forecast

Advertisements
Track Severe Weather on mobile